Kanab, UT (84741)

5:49 AM MDT on September 18, 2014 (GMT -0600)
MesoWest VERMILLION UT US SCAN | Change Station
CLOSE
Current Station
Personal Weather Station
Location: Kanab, UT
Elevation: 6380 ft
Nearby Weather Stations

Elev 6380 ft 37.18 °N, 112.20 °W | Updated 1 hour ago

Clear
Clear
56 °F
Feels Like 56 °F
N
1
Wind Variable Wind from ENE
Gusts 0.0 mph

Today
High -- | Low -- °F
--% Chance of Precip.
Yesterday
High -- | Low -- °F
Precip. -- in
7:13 AM 7:31 PM
Waning Crescent, 28% visible
Pressure 29.78 in
Visibility 10.0 miles
Clouds Clear
Dew Point 47 °F
Humidity 72%
Rainfall -999.00 in
Snow Depth 0 in , 2 in , 0 in
UV 0 out of 12
Pollen 6.40 out of 12
Air Quality Not available.
Flu Activity Not available.
METAR KPGA 181053Z AUTO 23004KT 10SM CLR 21/11 A2997 RMK AO2 SLP083 T02060111

More Conditions Fewer Conditions

Pressure 29.78 in
Visibility 10.0 miles
Clouds Clear
Dew Point 47 °F
Humidity 72%
Rainfall -999.00 in
Snow Depth 0 in , 2 in , 0 in
UV 0 out of 12
Pollen 6.40 out of 12
Air Quality Not available.
Flu Activity Not available.
METAR KPGA 181053Z AUTO 23004KT 10SM CLR 21/11 A2997 RMK AO2 SLP083 T02060111

More Conditions Fewer Conditions

10-Day Weather Forecast

Almanac

Astronomy

Sep. 18, 2014 Rise Set
Actual Time 7:13 AM MDT 7:31 PM MDT
Civil Twilight 6:47 AM MDT 7:57 PM MDT
Nautical Twilight 6:16 AM MDT 8:27 PM MDT
Astronomical Twilight 5:45 AM MDT 8:58 PM MDT
Moon 2:13 AM MDT 4:20 PM MDT
Length of Visible Light 13h 10m
Length of Day
12h 18m
Tomorrow will be 2m 20s shorter.
Waning Crescent, 28% of the Moon is Illuminated
Today
Waning Crescent
Sep 24
New
Oct 1
First Quarter
Oct 8
Full
Oct 15
Last Quarter

Today's Extremes

State Highs State Lows

Community

WunderPhotos

Upload Photos

1,754,324 photos uploaded!

Nearby

Snow Depth

Station Depth Elevation
Clear Creek #1 0 in 9200 ft
Lakefork #1 2 in 10100 ft
Donkey Reservoir 0 in 9800 ft
Five Points Lake 0 in 10920 ft
Brighton 1 in 8750 ft

Earthquake Activity

City Distance Mag. Time & Date
No recent earthquake activity has been reported nearby.
Minimum magnitude displayed is 2.5.

Coastal Water Temperatures

Place Temperature
No Stations Reporting

Nearby Weather Stations